createdAt,value
2018-05-06T00:02:22.474Z,99148.13
2018-05-06T00:04:48.878Z,99152.73
2018-05-06T00:07:15.281Z,99146.75
2018-05-06T00:09:41.723Z,99144.19
2018-05-06T00:12:08.170Z,99136.67
2018-05-06T00:14:34.633Z,99134.56
2018-05-06T00:17:01.085Z,99131.83
2018-05-06T00:19:27.622Z,99126.49
2018-05-06T00:21:54.026Z,99125.09
2018-05-06T00:24:20.471Z,99125.83
2018-05-06T00:26:47.507Z,99119.63
2018-05-06T00:29:14.062Z,99122.80
2018-05-06T00:31:40.451Z,99117.85
2018-05-06T00:34:06.988Z,99123.58
2018-05-06T00:36:33.493Z,99125.67
2018-05-06T00:38:59.953Z,99130.89
2018-05-06T00:41:26.394Z,99130.69
2018-05-06T00:43:52.967Z,99123.44
2018-05-06T00:46:19.549Z,99129.13
2018-05-06T00:48:45.853Z,99122.75
2018-05-06T00:51:12.261Z,99119.39
2018-05-06T00:53:38.707Z,99117.48
2018-05-06T00:56:05.661Z,99116.73
2018-05-06T00:58:32.120Z,99119.59
2018-05-06T01:00:58.502Z,99120.30
2018-05-06T01:03:24.955Z,99113.86
2018-05-06T01:05:51.472Z,99121.70
2018-05-06T01:08:17.920Z,99120.88
2018-05-06T01:10:44.506Z,99116.25
2018-05-06T01:13:10.891Z,99112.89
2018-05-06T01:15:37.345Z,99116.52
2018-05-06T01:18:03.817Z,99115.46
2018-05-06T01:20:30.297Z,99107.20
2018-05-06T01:22:56.714Z,99110.77
2018-05-06T01:25:23.090Z,99105.12
2018-05-06T01:27:50.128Z,99107.56
2018-05-06T01:30:16.523Z,99106.45
2018-05-06T01:32:42.910Z,99108.11
2018-05-06T01:35:09.315Z,99102.56
2018-05-06T01:37:35.773Z,99111.03
2018-05-06T01:40:02.308Z,99105.58
2018-05-06T01:42:28.785Z,99107.67
2018-05-06T01:44:55.200Z,99112.05
2018-05-06T01:47:21.629Z,99107.02
2018-05-06T01:49:48.042Z,99109.36
2018-05-06T01:52:14.558Z,99105.00
2018-05-06T01:54:41.078Z,99104.88
2018-05-06T01:57:07.442Z,99102.34
2018-05-06T01:59:33.876Z,99101.05
2018-05-06T02:02:00.308Z,99100.09
2018-05-06T02:04:26.721Z,99096.27
2018-05-06T02:06:53.125Z,99098.61
2018-05-06T02:09:19.559Z,99094.59
2018-05-06T02:11:45.950Z,99099.56
2018-05-06T02:14:12.386Z,99097.12
2018-05-06T02:16:38.806Z,99099.63
2018-05-06T02:19:05.191Z,99098.15
2018-05-06T02:21:31.694Z,99097.98
2018-05-06T02:23:58.090Z,99090.81
2018-05-06T02:26:24.478Z,99091.54
2018-05-06T02:28:50.878Z,99089.72
2018-05-06T02:31:17.319Z,99084.66
2018-05-06T02:33:43.804Z,99089.48
2018-05-06T02:36:10.227Z,99083.53
2018-05-06T02:38:36.735Z,99088.15
2018-05-06T02:41:03.179Z,99084.84
2018-05-06T02:43:29.543Z,99090.16
2018-05-06T02:45:55.958Z,99094.83
2018-05-06T02:48:22.360Z,99099.06
2018-05-06T02:50:48.748Z,99098.58
2018-05-06T02:53:15.159Z,99099.20
2018-05-06T02:55:41.592Z,99100.52
2018-05-06T02:58:07.970Z,99101.87
2018-05-06T03:00:34.471Z,99105.48
2018-05-06T03:03:00.880Z,99102.09
2018-05-06T03:05:27.561Z,99104.73
2018-05-06T03:07:54.000Z,99102.24
2018-05-06T03:10:20.396Z,99106.48
2018-05-06T03:12:46.777Z,99105.15
2018-05-06T03:15:13.236Z,99106.61
2018-05-06T03:17:39.660Z,99106.91
2018-05-06T03:20:06.037Z,99108.53
2018-05-06T03:22:32.560Z,99106.95
2018-05-06T03:24:58.938Z,99108.40
2018-05-06T03:27:25.357Z,99111.25
2018-05-06T03:29:51.837Z,99110.20
2018-05-06T03:32:18.202Z,99115.24
2018-05-06T03:34:44.686Z,99110.20
2018-05-06T03:37:11.082Z,99118.23
2018-05-06T03:39:37.520Z,99124.88
2018-05-06T03:42:03.991Z,99124.23
2018-05-06T03:44:30.409Z,99122.23
2018-05-06T03:46:56.899Z,99130.41
2018-05-06T03:49:23.441Z,99126.93
2018-05-06T03:51:49.849Z,99122.56
2018-05-06T03:54:16.214Z,99115.17
2018-05-06T03:57:04.547Z,99115.34
2018-05-06T03:59:43.705Z,99119.18
2018-05-06T04:15:36.714Z,99121.77
2018-05-06T04:18:03.156Z,99116.09
2018-05-06T04:20:29.558Z,99124.52
2018-05-06T04:22:55.969Z,99131.39
2018-05-06T04:25:22.463Z,99128.14
2018-05-06T04:27:48.944Z,99128.14
2018-05-06T04:30:15.409Z,99132.77
2018-05-06T04:32:41.964Z,99129.12
2018-05-06T04:35:08.467Z,99131.72
2018-05-06T04:37:34.970Z,99123.80
2018-05-06T04:40:01.365Z,99128.95
2018-05-06T04:42:27.826Z,99126.94
2018-05-06T04:44:54.293Z,99135.19
2018-05-06T04:47:20.685Z,99142.03
2018-05-06T04:49:47.084Z,99147.00
2018-05-06T04:52:13.550Z,99151.42
2018-05-06T04:54:40.110Z,99140.70
2018-05-06T04:57:06.583Z,99137.39
2018-05-06T04:59:32.975Z,99135.28
2018-05-06T05:01:59.338Z,99133.09
2018-05-06T05:04:25.701Z,99123.52
2018-05-06T05:06:52.129Z,99120.57
2018-05-06T05:09:18.610Z,99132.53
2018-05-06T05:11:45.041Z,99136.34
2018-05-06T05:14:11.475Z,99129.20
2018-05-06T05:16:37.945Z,99120.92
2018-05-06T05:19:04.472Z,99130.34
2018-05-06T05:21:30.872Z,99128.62
2018-05-06T05:23:57.426Z,99127.70
2018-05-06T05:26:23.992Z,99128.89
2018-05-06T05:28:50.418Z,99132.83
2018-05-06T05:31:16.919Z,99130.67
2018-05-06T05:33:43.391Z,99133.86
2018-05-06T05:36:09.946Z,99142.52
2018-05-06T05:38:37.407Z,99148.06
2018-05-06T08:34:41.978Z,99142.66
2018-05-06T08:37:08.590Z,99136.50
2018-05-06T08:39:35.150Z,99139.31
2018-05-06T08:42:01.780Z,99137.27
2018-05-06T08:44:28.356Z,99142.34
2018-05-06T08:46:55.008Z,99133.12
2018-05-06T08:49:21.619Z,99131.96
2018-05-06T08:51:48.189Z,99130.19
2018-05-06T08:54:15.980Z,99129.96
2018-05-06T08:56:42.713Z,99131.48
2018-05-06T08:59:09.302Z,99123.38
2018-05-06T09:01:35.874Z,99130.34
2018-05-06T09:04:02.419Z,99125.91
2018-05-06T09:06:28.994Z,99127.08
2018-05-06T09:08:56.646Z,99113.32
2018-05-06T09:11:23.199Z,99113.61
2018-05-06T09:13:49.707Z,99113.42
2018-05-06T09:16:16.248Z,99112.36
2018-05-06T09:18:42.854Z,99107.11
2018-05-06T09:21:09.547Z,99110.16
2018-05-06T09:23:36.055Z,99110.34
2018-05-06T09:26:02.644Z,99100.03
2018-05-06T09:28:29.274Z,99097.46
2018-05-06T09:30:55.815Z,99095.87
2018-05-06T09:33:22.281Z,99097.49
2018-05-06T09:35:48.839Z,99094.22
2018-05-06T09:38:16.309Z,99093.09
2018-05-06T09:40:42.817Z,99089.06
2018-05-06T09:43:09.442Z,99085.73
2018-05-06T09:45:35.966Z,99080.93
2018-05-06T09:48:02.582Z,99076.66
2018-05-06T09:50:29.166Z,99078.98
2018-05-06T09:52:55.676Z,99071.07
2018-05-06T09:55:22.412Z,99071.73
2018-05-06T09:57:48.953Z,99075.45
2018-05-06T10:00:15.467Z,99066.80
2018-05-06T10:02:41.950Z,99063.23
2018-05-06T10:05:08.571Z,99060.60
2018-05-06T10:07:35.028Z,99059.14
2018-05-06T10:10:01.664Z,99061.77
2018-05-06T10:12:28.289Z,99046.23
2018-05-06T10:14:54.974Z,99053.84
2018-05-06T10:17:21.644Z,99051.09
2018-05-06T10:19:48.268Z,99045.57
2018-05-06T10:22:15.573Z,99040.52
2018-05-06T10:24:42.167Z,99043.38
2018-05-06T10:27:08.703Z,99044.08
2018-05-06T10:29:35.330Z,99037.89
2018-05-06T10:32:01.864Z,99033.98
2018-05-06T10:34:28.563Z,99036.30
2018-05-06T10:36:55.110Z,99038.89
2018-05-06T10:39:21.626Z,99033.64
2018-05-06T10:41:48.204Z,99036.45
2018-05-06T10:44:14.812Z,99035.94
2018-05-06T10:46:41.271Z,99021.69
2018-05-06T10:49:07.853Z,99034.59
2018-05-06T10:51:34.333Z,99036.31
2018-05-06T10:54:00.923Z,99028.76
2018-05-06T10:56:27.405Z,99018.86
2018-05-06T10:58:53.997Z,99021.84
2018-05-06T11:01:20.543Z,99019.33
2018-05-06T11:03:47.162Z,99005.80
2018-05-06T11:06:13.743Z,99004.23
2018-05-06T11:08:40.267Z,99004.95
2018-05-06T11:11:07.003Z,99001.79
2018-05-06T11:13:33.659Z,99001.50
2018-05-06T11:16:00.195Z,98999.43
2018-05-06T11:18:26.874Z,98991.30
2018-05-06T11:20:53.436Z,98983.49
2018-05-06T11:23:20.595Z,98978.23
2018-05-06T11:25:47.167Z,98982.30
2018-05-06T11:28:13.705Z,98978.87
2018-05-06T11:30:40.227Z,98973.47
2018-05-06T11:33:06.698Z,98960.28
2018-05-06T11:35:33.197Z,98957.02
2018-05-06T11:37:59.707Z,98953.88
2018-05-06T11:40:26.257Z,98953.23
2018-05-06T11:42:52.833Z,98943.88
2018-05-06T11:45:19.452Z,98936.93
2018-05-06T11:47:45.968Z,98938.31
2018-05-06T11:50:12.431Z,98933.42
2018-05-06T11:52:38.985Z,98932.41
2018-05-06T11:55:05.527Z,98922.82
2018-05-06T11:57:32.054Z,98919.23
2018-05-06T11:59:58.647Z,98920.00
2018-05-06T12:02:25.193Z,98910.73
2018-05-06T12:04:51.692Z,98902.17
2018-05-06T12:07:18.357Z,98908.11
2018-05-06T12:09:44.907Z,98899.03
2018-05-06T12:12:11.528Z,98899.16
2018-05-06T12:14:38.167Z,98893.25
2018-05-06T12:17:04.627Z,98884.02
2018-05-06T12:19:31.113Z,98875.45
2018-05-06T12:21:57.674Z,98875.08
2018-05-06T12:24:24.961Z,98876.89
2018-05-06T12:26:51.439Z,98874.31
2018-05-06T12:29:18.007Z,98875.46
2018-05-06T12:31:44.615Z,98875.01
2018-05-06T12:34:11.219Z,98866.48
2018-05-06T12:36:37.743Z,98869.30
2018-05-06T12:39:04.343Z,98854.54
2018-05-06T12:41:31.988Z,98867.86
2018-05-06T12:43:58.483Z,98866.63
2018-05-06T12:46:25.087Z,98867.13
2018-05-06T12:48:51.571Z,98864.73
2018-05-06T12:51:18.271Z,98857.42
2018-05-06T12:53:44.862Z,98860.25
2018-05-06T12:56:11.327Z,98845.70
2018-05-06T12:58:37.863Z,98848.84
2018-05-06T13:01:04.356Z,98855.22
2018-05-06T13:03:31.016Z,98856.77
2018-05-06T13:05:57.618Z,98851.08
2018-05-06T13:08:24.179Z,98847.87
2018-05-06T13:10:52.374Z,98855.41
2018-05-06T13:13:18.934Z,98851.48
2018-05-06T13:15:45.490Z,98841.17
2018-05-06T13:18:12.002Z,98842.55
2018-05-06T13:20:38.558Z,98846.49
2018-05-06T13:23:05.238Z,98847.44
2018-05-06T13:25:31.772Z,98839.05
2018-05-06T13:27:58.358Z,98841.34
2018-05-06T13:30:24.895Z,98837.06
2018-05-06T13:32:51.467Z,98845.10
2018-05-06T13:35:18.074Z,98835.95
2018-05-06T13:37:44.663Z,98830.68
2018-05-06T13:40:11.202Z,98833.09
2018-05-06T13:42:37.833Z,98839.42
2018-05-06T13:45:04.472Z,98842.11
2018-05-06T13:47:31.026Z,98840.96
2018-05-06T13:49:57.718Z,98842.82
2018-05-06T13:52:24.123Z,98844.16
2018-05-06T13:54:50.717Z,98847.73
2018-05-06T13:57:17.297Z,98858.37
2018-05-06T13:59:43.809Z,98853.38
2018-05-06T14:02:10.355Z,98864.68
2018-05-06T14:04:36.851Z,98865.13
2018-05-06T14:07:03.366Z,98867.99
2018-05-06T14:09:29.862Z,98859.94
2018-05-06T14:11:56.399Z,98867.80
2018-05-06T14:14:22.787Z,98863.86
2018-05-06T14:16:49.378Z,98870.78
2018-05-06T14:19:15.847Z,98869.16
2018-05-06T14:21:42.404Z,98872.78
2018-05-06T14:24:08.774Z,98873.47
2018-05-06T14:26:35.205Z,98881.69
2018-05-06T14:29:01.686Z,98892.92
2018-05-06T14:31:28.116Z,98906.03
2018-05-06T14:33:54.551Z,98913.23
2018-05-06T14:36:22.047Z,98909.73
2018-05-06T14:38:48.535Z,98910.09
2018-05-06T14:41:15.113Z,98912.78
2018-05-06T14:43:41.583Z,98903.52
2018-05-06T14:46:15.010Z,98909.77
2018-05-06T14:48:42.080Z,98920.26
2018-05-06T14:51:08.594Z,98933.56
2018-05-06T14:53:35.039Z,98947.28
2018-05-06T14:56:01.562Z,98955.27
2018-05-06T14:58:27.942Z,98956.06
2018-05-06T15:00:54.442Z,98965.83
2018-05-06T15:03:20.962Z,98970.93
2018-05-06T15:05:47.428Z,98976.86
2018-05-06T15:08:13.896Z,98992.44
2018-05-06T15:10:40.454Z,99010.66
2018-05-06T15:13:06.895Z,99022.20
2018-05-06T15:15:33.298Z,99022.25
2018-05-06T15:17:59.878Z,99010.77
2018-05-06T15:20:26.310Z,98999.16
2018-05-06T15:22:52.770Z,98991.60
2018-05-06T15:25:19.203Z,98976.47
2018-05-06T15:27:45.647Z,98960.39
2018-05-06T15:30:12.145Z,98947.13
2018-05-06T15:32:39.582Z,98928.87
2018-05-06T15:35:05.965Z,98927.80
2018-05-06T15:37:32.497Z,98939.19
2018-05-06T15:39:58.898Z,98946.36
2018-05-06T15:42:25.333Z,98949.90
2018-05-06T15:44:51.780Z,98960.06
2018-05-06T15:47:18.293Z,98971.46
2018-05-06T15:49:44.669Z,98970.66
2018-05-06T15:52:11.164Z,98985.91
2018-05-06T15:54:37.550Z,98986.82
2018-05-06T15:57:04.029Z,98985.52
2018-05-06T15:59:30.440Z,98992.52
2018-05-06T16:02:06.997Z,98981.66
2018-05-06T16:04:33.529Z,98982.55
2018-05-06T16:07:00.015Z,99004.25
2018-05-06T16:09:26.565Z,99012.59
2018-05-06T16:11:53.033Z,99034.59
2018-05-06T16:14:19.494Z,99033.09
2018-05-06T16:16:46.270Z,99041.70
2018-05-06T16:19:12.798Z,99036.05
2018-05-06T16:21:39.290Z,99033.61
2018-05-06T16:24:05.757Z,99031.20
2018-05-06T16:26:32.307Z,99023.63
2018-05-06T16:28:58.802Z,99016.45
2018-05-06T16:31:25.179Z,99022.11
2018-05-06T16:33:51.633Z,99015.42
2018-05-06T16:36:18.072Z,99011.02
2018-05-06T16:38:44.583Z,99014.22
2018-05-06T16:41:11.022Z,99024.66
2018-05-06T16:43:37.519Z,99009.08
2018-05-06T16:46:03.934Z,99020.34
2018-05-06T16:48:30.332Z,99017.09
2018-05-06T16:50:56.905Z,99002.70
2018-05-06T16:53:23.557Z,99004.95
2018-05-06T16:55:49.966Z,99028.31
2018-05-06T16:58:16.480Z,99035.78
2018-05-06T17:00:42.961Z,99039.64
2018-05-06T17:03:09.394Z,99039.55
2018-05-06T17:05:36.136Z,99035.72
2018-05-06T17:08:02.571Z,99032.42
2018-05-06T17:10:29.848Z,99035.33
2018-05-06T17:12:56.349Z,99035.37
2018-05-06T17:15:22.770Z,99044.60
2018-05-06T17:17:49.306Z,99045.07
2018-05-06T17:20:15.749Z,99041.64
2018-05-06T17:22:42.150Z,99046.52
2018-05-06T17:25:08.592Z,99044.49
2018-05-06T17:27:35.075Z,99046.63
2018-05-06T17:30:01.585Z,99047.70
2018-05-06T17:32:28.032Z,99058.32
2018-05-06T17:34:54.474Z,99065.56
2018-05-06T17:37:21.125Z,99077.01
2018-05-06T17:39:47.555Z,99084.03
2018-05-06T17:42:14.016Z,99088.05
2018-05-06T17:44:40.597Z,99096.16
2018-05-06T17:47:07.103Z,99099.06
2018-05-06T17:49:33.666Z,99103.23
2018-05-06T17:52:00.515Z,99112.12
2018-05-06T17:54:26.878Z,99123.30
2018-05-06T17:56:53.349Z,99115.09
2018-05-06T17:59:19.742Z,99118.35
2018-05-06T18:01:46.281Z,99111.04
2018-05-06T18:04:12.818Z,99117.84
2018-05-06T18:06:39.361Z,99115.08
2018-05-06T18:09:05.751Z,99112.28
2018-05-06T18:11:32.174Z,99116.75
2018-05-06T18:13:58.746Z,99118.66
2018-05-06T18:16:25.211Z,99116.47
2018-05-06T18:18:51.728Z,99115.63
2018-05-06T18:21:18.247Z,99111.52
2018-05-06T18:23:44.651Z,99116.58
2018-05-06T18:26:11.233Z,99114.09
2018-05-06T18:28:37.698Z,99118.29
2018-05-06T18:31:04.195Z,99118.63
2018-05-06T18:33:30.677Z,99134.30
2018-05-06T18:35:57.116Z,99116.61
2018-05-06T18:38:23.534Z,99121.78
2018-05-06T18:40:49.893Z,99124.64
2018-05-06T18:43:16.299Z,99129.08
2018-05-06T18:45:42.732Z,99120.61
2018-05-06T18:48:09.238Z,99119.66
2018-05-06T18:50:35.668Z,99122.86
2018-05-06T18:53:02.102Z,99119.05
2018-05-06T18:55:28.538Z,99124.20
2018-05-06T18:57:54.933Z,99128.69
2018-05-06T19:00:21.347Z,99126.28
2018-05-06T19:02:47.730Z,99119.70
2018-05-06T19:05:14.115Z,99122.89
2018-05-06T19:07:40.591Z,99128.59
2018-05-06T19:10:07.185Z,99135.62
2018-05-06T19:12:33.620Z,99134.72
2018-05-06T19:15:00.102Z,99144.61
2018-05-06T19:17:26.566Z,99156.67
2018-05-06T19:19:52.978Z,99154.30
2018-05-06T19:22:20.316Z,99157.09
2018-05-06T19:24:46.823Z,99149.83
2018-05-06T19:27:13.390Z,99152.08
2018-05-06T19:29:39.864Z,99150.08
2018-05-06T19:32:06.244Z,99152.16
2018-05-06T19:34:32.771Z,99152.06
2018-05-06T19:36:59.170Z,99157.44
2018-05-06T19:39:25.579Z,99154.83
2018-05-06T19:41:51.989Z,99164.13
2018-05-06T19:44:19.318Z,99172.16
2018-05-06T19:46:45.740Z,99167.73
2018-05-06T19:49:13.030Z,99169.86
2018-05-06T19:51:39.564Z,99171.53
2018-05-06T19:54:06.190Z,99158.67
2018-05-06T19:56:33.065Z,99149.12
2018-05-06T19:59:02.808Z,99149.80
2018-05-06T20:01:35.656Z,99157.00
2018-05-06T20:04:03.645Z,99148.34
2018-05-06T20:06:31.104Z,99162.41
2018-05-06T20:09:02.135Z,99164.11
2018-05-06T20:11:30.717Z,99174.03
2018-05-06T20:13:58.205Z,99184.70
2018-05-06T20:16:26.907Z,99179.20
2018-05-06T20:18:56.040Z,99173.07
2018-05-06T20:21:24.216Z,99173.36
2018-05-06T20:23:52.587Z,99170.58
2018-05-06T20:26:19.857Z,99177.23
2018-05-06T20:28:49.713Z,99184.11
2018-05-06T20:31:17.507Z,99189.83
2018-05-06T20:33:44.224Z,99182.89
2018-05-06T20:36:15.275Z,99177.47
2018-05-06T20:38:42.647Z,99184.44
2018-05-06T20:41:11.382Z,99181.93
2018-05-06T20:43:38.159Z,99184.94
2018-05-06T20:46:04.530Z,99179.20
2018-05-06T20:48:30.928Z,99185.33
2018-05-06T20:50:57.399Z,99190.70
2018-05-06T20:53:23.824Z,99200.75
2018-05-06T20:55:50.222Z,99194.22
2018-05-06T20:58:16.557Z,99194.66
2018-05-06T21:00:42.958Z,99190.42
2018-05-06T21:03:09.376Z,99198.19
2018-05-06T21:05:35.797Z,99194.84
2018-05-06T21:08:02.236Z,99189.56
2018-05-06T21:10:28.709Z,99187.06
2018-05-06T21:12:55.130Z,99190.77
2018-05-06T21:15:21.561Z,99185.07
2018-05-06T21:17:47.967Z,99179.97
2018-05-06T21:20:14.387Z,99174.20
2018-05-06T21:22:40.794Z,99178.55
2018-05-06T21:25:07.315Z,99180.00
2018-05-06T21:27:33.616Z,99179.52
2018-05-06T21:30:00.095Z,99166.77
2018-05-06T21:32:26.554Z,99170.42
2018-05-06T21:34:53.058Z,99173.86
2018-05-06T21:37:19.510Z,99165.21
2018-05-06T21:39:45.921Z,99166.97
2018-05-06T21:42:12.334Z,99172.97
2018-05-06T21:44:38.835Z,99175.73
2018-05-06T21:47:05.277Z,99171.30
2018-05-06T21:49:32.647Z,99172.38
2018-05-06T21:51:58.970Z,99178.95
2018-05-06T21:54:25.489Z,99171.40
2018-05-06T21:56:51.809Z,99168.00
2018-05-06T21:59:18.196Z,99171.76
2018-05-06T22:01:44.662Z,99171.22
2018-05-06T22:04:11.074Z,99163.57
2018-05-06T22:06:37.555Z,99160.58
2018-05-06T22:09:04.976Z,99155.47
2018-05-06T22:11:31.379Z,99161.23
2018-05-06T22:13:57.778Z,99155.42
2018-05-06T22:16:24.168Z,99154.47
2018-05-06T22:18:50.537Z,99149.17
2018-05-06T22:21:16.922Z,99150.55
2018-05-06T22:23:43.309Z,99149.16
2018-05-06T22:26:09.664Z,99139.66
2018-05-06T22:28:35.999Z,99142.63
2018-05-06T22:31:02.430Z,99136.62
2018-05-06T22:33:28.875Z,99129.08
2018-05-06T22:35:55.181Z,99130.57
2018-05-06T22:38:21.624Z,99135.37
2018-05-06T22:40:48.062Z,99135.55
2018-05-06T22:43:14.418Z,99132.48
2018-05-06T22:45:40.892Z,99127.83
2018-05-06T22:48:07.270Z,99129.75
2018-05-06T22:50:33.609Z,99129.38
2018-05-06T22:53:00.024Z,99130.91
2018-05-06T22:55:26.466Z,99124.32
2018-05-06T22:57:52.814Z,99123.55
2018-05-06T23:00:19.230Z,99123.52
2018-05-06T23:02:45.666Z,99117.85
2018-05-06T23:05:12.211Z,99116.49
2018-05-06T23:07:38.721Z,99116.91
2018-05-06T23:10:05.160Z,99114.53
2018-05-06T23:12:31.619Z,99126.73
2018-05-06T23:14:58.141Z,99122.30
2018-05-06T23:17:24.643Z,99127.38
2018-05-06T23:19:51.176Z,99122.20
2018-05-06T23:22:17.560Z,99117.20
2018-05-06T23:24:43.932Z,99107.30
2018-05-06T23:27:10.378Z,99115.09
2018-05-06T23:29:36.811Z,99110.45
2018-05-06T23:32:03.264Z,99106.53
2018-05-06T23:34:29.662Z,99096.48
2018-05-06T23:36:56.162Z,99099.73
2018-05-06T23:39:22.598Z,99102.03
2018-05-06T23:41:49.055Z,99108.98
2018-05-06T23:44:15.617Z,99099.81
2018-05-06T23:46:42.058Z,99106.05
2018-05-06T23:49:08.553Z,99102.21
2018-05-06T23:51:35.032Z,99109.77
2018-05-06T23:54:01.661Z,99113.12
2018-05-06T23:56:28.133Z,99102.54
2018-05-06T23:58:54.835Z,99102.48
